Time;durP1;ratioP1;P1;durP2;ratioP2;P2;SDS_P1;SDS_P2;PMS_P1;PMS_P2;Temp;Humidity;BMP_temperature;BMP_pressure;BME280_temperature;BME280_humidity;BME280_pressure;Samples;Min_cycle;Max_cycle;Signal;HPM_P1;HPM_P2
2021/12/30 00:02:07;;;;;;;1.45;0.40;;;;;;;12.29;98.63;99179.97;2044340;77;21480;-72
2021/12/30 00:05:10;;;;;;;3.29;0.40;;;;;;;12.26;98.66;99185.22;2045223;79;20306;-72
2021/12/30 00:08:13;;;;;;;2.11;0.63;;;;;;;12.22;98.89;99196.59;2045403;79;20184;-72
2021/12/30 00:11:16;;;;;;;2.51;0.46;;;;;;;12.19;98.83;99206.16;2045134;79;20165;-72
2021/12/30 00:14:18;;;;;;;2.13;0.52;;;;;;;12.15;98.93;99207.94;2044738;79;20248;-72
2021/12/30 00:17:21;;;;;;;3.51;0.77;;;;;;;12.13;99.39;99219.25;2039578;77;25023;-73
2021/12/30 00:20:24;;;;;;;1.91;0.38;;;;;;;12.14;99.40;99228.78;2044746;79;20243;-73
2021/12/30 00:23:26;;;;;;;5.54;0.85;;;;;;;12.11;99.58;99224.47;2044509;79;20256;-72
2021/12/30 00:26:29;;;;;;;1.38;0.30;;;;;;;12.14;100.00;99221.84;2045538;79;20208;-72
2021/12/30 00:29:33;;;;;;;2.41;0.50;;;;;;;12.18;100.00;99233.91;2041979;79;20320;-72
2021/12/30 00:35:52;;;;;;;4.45;0.47;;;;;;;12.22;100.00;99230.41;2019934;80;20303;-72
2021/12/30 00:38:55;;;;;;;0.89;0.41;;;;;;;12.24;100.00;99233.84;2019744;80;20237;-72
2021/12/30 00:41:57;;;;;;;2.31;0.40;;;;;;;12.28;100.00;99243.34;2018820;80;20281;-72
2021/12/30 00:45:00;;;;;;;1.05;0.50;;;;;;;12.30;100.00;99241.56;2019296;80;20208;-72
2021/12/30 00:48:05;;;;;;;3.40;0.59;;;;;;;12.32;100.00;99237.19;2018062;80;22909;-73
2021/12/30 00:51:08;;;;;;;2.41;0.44;;;;;;;12.32;100.00;99236.34;2018935;80;20168;-72
2021/12/30 00:54:11;;;;;;;1.56;0.47;;;;;;;12.32;100.00;99250.22;2020143;80;20267;-72
2021/12/30 00:57:13;;;;;;;4.46;0.40;;;;;;;12.31;100.00;99255.44;2019950;80;20183;-72
2021/12/30 01:00:19;;;;;;;2.47;0.39;;;;;;;12.25;100.00;99253.81;2020189;79;20240;-73
2021/12/30 01:03:22;;;;;;;3.29;0.57;;;;;;;12.22;100.00;99255.59;2030806;79;20219;-72
2021/12/30 01:06:24;;;;;;;1.91;0.32;;;;;;;12.21;100.00;99265.16;2031136;79;20179;-72
2021/12/30 01:09:27;;;;;;;2.06;0.35;;;;;;;12.21;100.00;99270.34;2030644;79;20200;-72
2021/12/30 01:12:30;;;;;;;1.27;0.28;;;;;;;12.23;100.00;99278.13;2030663;79;20179;-72
2021/12/30 01:15:46;;;;;;;3.20;0.40;;;;;;;12.24;100.00;99283.31;2028106;77;21769;-72
2021/12/30 01:18:56;;;;;;;5.11;0.50;;;;;;;12.25;100.00;99294.59;2025307;80;20219;-72
2021/12/30 01:21:59;;;;;;;1.63;0.34;;;;;;;12.27;100.00;99293.69;2026533;80;21107;-72
2021/12/30 01:25:07;;;;;;;1.84;0.38;;;;;;;12.30;100.00;99298.00;2025913;80;20654;-72
2021/12/30 01:28:09;;;;;;;1.33;0.30;;;;;;;12.32;100.00;99304.91;2026488;80;20214;-72
2021/12/30 01:31:12;;;;;;;1.96;0.66;;;;;;;12.35;100.00;99314.41;2024237;77;20386;-72
2021/12/30 01:34:15;;;;;;;1.16;0.49;;;;;;;12.36;100.00;99316.13;2025542;80;20249;-72
2021/12/30 01:37:20;;;;;;;3.33;0.40;;;;;;;12.38;100.00;99316.97;2025708;80;20195;-72
2021/12/30 01:40:23;;;;;;;2.10;0.56;;;;;;;12.39;100.00;99327.38;2025670;80;20261;-72
2021/12/30 01:43:27;;;;;;;4.96;0.60;;;;;;;12.40;100.00;99328.25;2026295;80;20204;-72
2021/12/30 01:46:38;;;;;;;2.11;0.40;;;;;;;12.37;100.00;99331.72;2023138;77;20194;-71
2021/12/30 01:49:41;;;;;;;5.15;0.54;;;;;;;12.37;100.00;99333.47;2025902;80;20671;-71
2021/12/30 01:52:44;;;;;;;2.33;1.30;;;;;;;12.36;100.00;99340.41;2024963;80;20288;-71
2021/12/30 01:55:47;;;;;;;3.11;0.40;;;;;;;12.36;100.00;99339.56;2025401;80;20183;-71
2021/12/30 01:58:49;;;;;;;2.91;0.39;;;;;;;12.35;100.00;99343.91;2024905;80;21001;-71
2021/12/30 02:01:53;;;;;;;1.17;0.30;;;;;;;12.35;100.00;99333.50;2022600;77;21365;-71
2021/12/30 02:05:01;;;;;;;1.54;0.49;;;;;;;12.37;100.00;99336.94;2024527;80;20212;-71
2021/12/30 02:08:06;;;;;;;1.23;0.41;;;;;;;12.36;100.00;99335.22;2025337;80;20692;-71
2021/12/30 02:11:09;;;;;;;1.13;0.49;;;;;;;12.39;100.00;99336.94;2025516;80;20201;-71
2021/12/30 02:14:12;;;;;;;1.73;0.22;;;;;;;12.40;100.00;99342.13;2028649;80;20302;-71
2021/12/30 02:17:14;;;;;;;1.15;0.31;;;;;;;12.41;100.00;99335.19;2023913;77;23366;-72
2021/12/30 02:20:41;;;;;;;1.39;0.25;;;;;;;12.40;100.00;99323.03;2025322;80;20232;-71
2021/12/30 02:23:44;;;;;;;1.67;0.20;;;;;;;12.41;100.00;99324.75;2025437;80;20191;-71
2021/12/30 02:26:46;;;;;;;0.55;0.28;;;;;;;12.43;100.00;99340.38;2025061;80;20212;-71
2021/12/30 02:29:49;;;;;;;2.80;0.30;;;;;;;12.45;100.00;99338.59;2025658;80;20235;-71
2021/12/30 02:32:52;;;;;;;1.63;0.20;;;;;;;12.44;100.00;99335.13;2028794;77;23978;-72
2021/12/30 02:35:55;;;;;;;0.30;0.20;;;;;;;12.46;100.00;99342.91;2020709;80;20211;-72
2021/12/30 02:39:01;;;;;;;0.66;0.20;;;;;;;12.48;100.00;99346.38;2020602;80;20972;-72
2021/12/30 02:42:04;;;;;;;0.59;0.30;;;;;;;12.48;100.00;99347.22;2021470;80;20276;-72
2021/12/30 02:45:07;;;;;;;1.36;0.30;;;;;;;12.51;100.00;99354.13;2019646;80;20682;-72
2021/12/30 02:48:26;;;;;;;0.30;0.20;;;;;;;12.50;100.00;99358.47;2020529;77;24184;-72
2021/12/30 02:51:28;;;;;;;0.63;0.17;;;;;;;12.51;100.00;99355.00;2021656;80;20823;-72
2021/12/30 02:54:32;;;;;;;0.71;0.10;;;;;;;12.52;100.00;99358.47;2021690;80;20253;-72
2021/12/30 02:57:35;;;;;;;0.10;0.10;;;;;;;12.54;100.00;99362.75;2020969;80;20172;-72
2021/12/30 03:00:39;;;;;;;0.50;0.05;;;;;;;12.57;100.00;99361.88;2019063;77;20800;-72
2021/12/30 03:03:43;;;;;;;1.24;0.10;;;;;;;12.58;100.00;99366.22;2022903;80;20215;-72
2021/12/30 03:06:46;;;;;;;0.75;0.10;;;;;;;12.60;100.00;99375.72;2022683;80;20724;-71
2021/12/30 03:09:48;;;;;;;0.13;0.10;;;;;;;12.64;100.00;99372.19;2022117;80;20175;-72
2021/12/30 03:13:03;;;;;;;0.10;0.10;;;;;;;12.67;100.00;99374.75;2021693;80;20156;-72
2021/12/30 03:16:12;;;;;;;0.09;0.09;;;;;;;12.69;100.00;99372.13;2018899;77;23033;-72
2021/12/30 03:19:14;;;;;;;1.30;0.07;;;;;;;12.68;100.00;99368.66;2017369;80;20694;-72
2021/12/30 03:22:17;;;;;;;0.09;0.00;;;;;;;12.71;100.00;99363.41;2016802;80;20630;-72
2021/12/30 03:25:19;;;;;;;0.28;0.00;;;;;;;12.74;100.00;99369.44;2017008;80;20192;-72
2021/12/30 03:28:22;;;;;;;0.00;0.00;;;;;;;12.77;100.00;99372.03;2016215;80;20226;-72
2021/12/30 03:31:25;;;;;;;2.08;0.10;;;;;;;12.76;100.00;99375.53;2015402;77;21975;-72
2021/12/30 03:34:28;;;;;;;0.00;0.00;;;;;;;12.78;100.00;99378.97;2023590;80;20216;-72
2021/12/30 03:37:31;;;;;;;0.94;0.00;;;;;;;12.81;100.00;99381.53;2026699;80;20179;-72
2021/12/30 03:40:35;;;;;;;0.00;0.00;;;;;;;12.82;100.00;99383.25;2028087;80;20278;-72
2021/12/30 03:43:38;;;;;;;0.74;0.10;;;;;;;12.81;100.00;99387.59;2027032;80;20172;-72
2021/12/30 03:46:41;;;;;;;0.00;0.00;;;;;;;12.83;100.00;99382.38;2023046;77;22403;-71
2021/12/30 03:49:46;;;;;;;0.15;0.00;;;;;;;12.83;100.00;99382.38;2022136;80;20315;-72
2021/12/30 03:52:51;;;;;;;0.38;0.01;;;;;;;12.83;100.00;99384.97;2024736;80;20229;-72
2021/12/30 03:55:54;;;;;;;0.09;0.01;;;;;;;12.82;100.00;99389.34;2021581;80;20184;-72
2021/12/30 03:58:58;;;;;;;0.86;0.00;;;;;;;12.85;100.00;99398.84;2022018;80;20249;-72
2021/12/30 04:02:00;;;;;;;1.02;0.00;;;;;;;12.84;100.00;99408.41;2023135;77;21570;-72
2021/12/30 04:05:04;;;;;;;0.10;0.00;;;;;;;12.84;100.00;99403.19;2027014;80;20211;-72
2021/12/30 04:08:09;;;;;;;0.41;0.00;;;;;;;12.84;100.00;99399.72;2026311;80;20171;-72
2021/12/30 04:11:12;;;;;;;0.00;0.00;;;;;;;12.86;100.00;99404.03;2025072;80;20179;-72
2021/12/30 04:14:14;;;;;;;0.10;0.00;;;;;;;12.88;100.00;99404.88;2026638;80;20198;-73
2021/12/30 04:17:17;;;;;;;0.44;0.00;;;;;;;12.86;100.00;99403.16;2020995;79;22207;-72
2021/12/30 04:20:20;;;;;;;0.00;0.00;;;;;;;12.88;100.00;99410.09;2020875;80;20187;-72
2021/12/30 04:23:22;;;;;;;0.00;0.00;;;;;;;12.88;100.00;99417.03;2021888;80;20215;-72
2021/12/30 04:26:26;;;;;;;0.69;0.00;;;;;;;12.88;100.00;99423.09;2021047;80;20287;-72
2021/12/30 04:29:28;;;;;;;0.00;0.00;;;;;;;12.88;100.00;99417.03;2021181;80;20237;-72
2021/12/30 04:32:31;;;;;;;0.30;0.00;;;;;;;12.86;100.00;99414.47;2023047;77;25020;-72
2021/12/30 04:35:34;;;;;;;1.71;0.00;;;;;;;12.87;100.00;99420.53;2025748;80;20209;-72
2021/12/30 04:38:37;;;;;;;0.10;0.01;;;;;;;12.88;100.00;99433.53;2025906;80;20175;-72
2021/12/30 04:41:40;;;;;;;2.67;0.00;;;;;;;12.88;100.00;99433.53;2026873;80;20212;-72
2021/12/30 04:44:43;;;;;;;0.00;0.00;;;;;;;12.87;100.00;99436.16;2029044;79;20917;-72
2021/12/30 04:47:46;;;;;;;0.57;0.00;;;;;;;12.87;100.00;99441.38;2029872;77;21137;-72
2021/12/30 04:50:49;;;;;;;0.10;0.09;;;;;;;12.87;100.00;99443.97;2031652;79;20198;-72
2021/12/30 04:53:52;;;;;;;0.34;0.00;;;;;;;12.86;100.00;99431.84;2034793;79;21314;-72
2021/12/30 04:56:54;;;;;;;0.09;0.00;;;;;;;12.85;100.00;99437.94;2035489;79;20190;-72
2021/12/30 04:59:57;;;;;;;0.75;0.00;;;;;;;12.85;100.00;99448.34;2032046;79;20186;-72
2021/12/30 05:06:08;;;;;;;1.48;0.00;;;;;;;12.86;100.00;99444.88;2026124;80;20340;-72
2021/12/30 05:09:11;;;;;;;0.43;0.00;;;;;;;12.85;100.00;99446.59;2026477;80;20789;-72
2021/12/30 05:12:13;;;;;;;1.19;0.05;;;;;;;12.87;100.00;99454.41;2025239;80;20171;-72
2021/12/30 05:15:16;;;;;;;0.30;0.10;;;;;;;12.85;100.00;99453.56;2024503;79;26382;-72
2021/12/30 05:18:20;;;;;;;0.32;0.05;;;;;;;12.86;100.00;99458.75;2025459;80;20167;-72
2021/12/30 05:21:24;;;;;;;0.95;0.10;;;;;;;12.87;100.00;99457.00;2025102;80;20267;-72
2021/12/30 05:24:27;;;;;;;0.64;0.00;;;;;;;12.89;100.00;99469.13;2025183;80;20364;-72
2021/12/30 05:27:29;;;;;;;0.10;0.10;;;;;;;12.87;100.00;99470.03;2025965;80;20198;-72
2021/12/30 05:30:32;;;;;;;0.30;0.00;;;;;;;12.88;100.00;99475.22;2023125;77;21364;-72
2021/12/30 05:33:34;;;;;;;0.10;0.00;;;;;;;12.90;100.00;99470.00;2025823;80;21021;-73
2021/12/30 05:36:37;;;;;;;1.71;0.10;;;;;;;12.91;100.00;99474.31;2025190;80;20283;-73
2021/12/30 05:39:41;;;;;;;2.47;0.99;;;;;;;12.90;100.00;99478.69;2025458;80;20217;-72
2021/12/30 05:42:44;;;;;;;0.36;0.10;;;;;;;12.91;100.00;99484.75;2025524;80;20222;-73
2021/12/30 05:45:47;;;;;;;1.42;0.10;;;;;;;12.92;100.00;99489.09;2024249;77;20414;-72
2021/12/30 05:48:50;;;;;;;0.59;0.00;;;;;;;12.93;100.00;99496.91;2027935;80;20220;-72
2021/12/30 05:51:52;;;;;;;1.20;0.10;;;;;;;12.94;100.00;99505.59;2025623;79;20256;-72
2021/12/30 05:54:55;;;;;;;0.05;0.05;;;;;;;12.92;100.00;99502.97;2024927;80;20579;-72
2021/12/30 05:57:58;;;;;;;0.68;0.10;;;;;;;12.91;100.00;99510.81;2025190;80;20938;-73
2021/12/30 06:01:01;;;;;;;0.46;0.01;;;;;;;12.91;100.00;99524.72;2024041;77;20212;-72
2021/12/30 06:04:04;;;;;;;0.10;0.00;;;;;;;12.92;100.00;99525.56;2025967;80;20211;-72
2021/12/30 06:07:06;;;;;;;1.58;0.09;;;;;;;12.91;100.00;99537.75;2025321;80;20259;-72
2021/12/30 06:10:10;;;;;;;0.21;0.04;;;;;;;12.91;100.00;99535.13;2026330;80;20749;-72
2021/12/30 06:13:13;;;;;;;0.13;0.00;;;;;;;12.91;100.00;99535.13;2029683;80;20239;-72
2021/12/30 06:16:16;;;;;;;0.10;0.00;;;;;;;12.91;100.00;99553.38;2026958;77;23511;-73
2021/12/30 06:19:19;;;;;;;0.35;0.00;;;;;;;12.91;100.00;99550.78;2031310;79;20223;-72
2021/12/30 06:22:22;;;;;;;0.34;0.00;;;;;;;12.89;100.00;99547.31;2032029;79;20326;-73
2021/12/30 06:25:25;;;;;;;0.43;0.00;;;;;;;12.88;100.00;99542.13;2031501;79;20243;-73
2021/12/30 06:28:30;;;;;;;0.36;0.00;;;;;;;12.89;100.00;99549.94;2031428;79;20630;-72
2021/12/30 06:31:32;;;;;;;0.06;0.00;;;;;;;12.90;100.00;99554.25;2028387;77;23234;-72
2021/12/30 06:34:35;;;;;;;0.13;0.00;;;;;;;12.91;100.00;99552.50;2030994;79;20838;-72
2021/12/30 06:37:39;;;;;;;0.39;0.00;;;;;;;12.92;100.00;99562.06;2031619;79;20525;-72
2021/12/30 06:40:42;;;;;;;0.00;0.00;;;;;;;12.92;100.00;99575.09;2030766;79;20187;-73
2021/12/30 06:43:45;;;;;;;0.14;0.10;;;;;;;12.92;100.00;99568.13;2031055;79;20512;-72
2021/12/30 06:46:57;;;;;;;0.13;0.00;;;;;;;12.91;100.00;99569.00;2025637;79;22440;-73
2021/12/30 06:50:02;;;;;;;0.75;0.00;;;;;;;12.92;100.00;99572.47;2028846;79;20289;-73
2021/12/30 06:53:04;;;;;;;0.52;0.00;;;;;;;12.90;100.00;99575.09;2025163;80;20191;-73
2021/12/30 06:56:07;;;;;;;0.26;0.10;;;;;;;12.91;100.00;99583.78;2025547;80;20673;-73
2021/12/30 06:59:14;;;;;;;0.15;0.10;;;;;;;12.93;100.00;99592.47;2025951;80;20292;-73
2021/12/30 07:02:17;;;;;;;0.34;0.10;;;;;;;12.91;100.00;99600.28;2023272;77;26585;-73
2021/12/30 07:05:20;;;;;;;0.35;0.10;;;;;;;12.91;100.00;99609.84;2026329;80;20219;-73
2021/12/30 07:08:23;;;;;;;0.41;0.03;;;;;;;12.90;100.00;99614.19;2025477;80;20289;-73
2021/12/30 07:11:25;;;;;;;0.10;0.00;;;;;;;12.92;100.00;99611.56;2026164;80;20652;-73
2021/12/30 07:14:29;;;;;;;0.16;0.10;;;;;;;12.92;100.00;99620.25;2025732;80;20183;-73
2021/12/30 07:17:32;;;;;;;0.79;0.00;;;;;;;12.92;100.00;99627.22;2024346;77;20872;-74
2021/12/30 07:20:34;;;;;;;0.75;0.00;;;;;;;12.92;100.00;99624.59;2031055;80;20171;-73
2021/12/30 07:23:37;;;;;;;0.54;0.10;;;;;;;12.91;100.00;99630.69;2032782;80;20166;-74
2021/12/30 07:26:40;;;;;;;3.39;0.08;;;;;;;12.89;100.00;99630.72;2027435;80;21021;-74
2021/12/30 07:29:42;;;;;;;0.39;0.00;;;;;;;12.90;100.00;99635.06;2026749;80;20235;-73
2021/12/30 07:32:46;;;;;;;0.09;0.00;;;;;;;12.91;100.00;99641.13;2025403;77;22822;-74
2021/12/30 07:35:48;;;;;;;0.64;0.10;;;;;;;12.93;100.00;99634.19;2026970;80;20204;-74
2021/12/30 07:38:51;;;;;;;0.55;0.10;;;;;;;12.94;100.00;99638.50;2026325;80;20213;-74
2021/12/30 07:41:53;;;;;;;0.20;0.00;;;;;;;12.95;100.00;99642.84;2026872;79;20674;-73
2021/12/30 07:44:56;;;;;;;0.20;0.10;;;;;;;12.96;100.00;99644.56;2023298;80;20266;-72
2021/12/30 07:47:59;;;;;;;0.20;0.10;;;;;;;12.95;100.00;99640.25;2023207;77;32209;-72
2021/12/30 07:51:01;;;;;;;0.04;0.00;;;;;;;12.97;100.00;99646.28;2024066;80;20179;-73
2021/12/30 07:54:04;;;;;;;2.26;0.10;;;;;;;12.97;100.00;99649.78;2024036;80;20687;-73
2021/12/30 07:57:06;;;;;;;0.09;0.09;;;;;;;12.97;100.00;99657.59;2023123;80;20191;-73
2021/12/30 08:00:13;;;;;;;1.06;0.30;;;;;;;13.00;100.00;99664.50;2022315;80;20175;-73
2021/12/30 08:03:15;;;;;;;0.54;0.10;;;;;;;13.02;100.00;99662.75;2023282;77;21193;-72
2021/12/30 08:06:18;;;;;;;1.38;0.08;;;;;;;13.04;100.00;99663.59;2024523;80;20218;-73
2021/12/30 08:09:21;;;;;;;0.01;0.00;;;;;;;13.06;100.00;99661.81;2026837;79;20191;-73
2021/12/30 08:12:24;;;;;;;0.20;0.10;;;;;;;13.07;100.00;99660.09;2024734;80;20607;-73
2021/12/30 08:15:26;;;;;;;0.30;0.10;;;;;;;13.08;100.00;99659.19;2024325;79;22436;-73
2021/12/30 08:18:29;;;;;;;0.10;0.00;;;;;;;13.06;100.00;99667.03;2030140;79;20190;-73
2021/12/30 08:21:31;;;;;;;0.20;0.10;;;;;;;13.09;100.00;99655.72;2030579;79;20214;-74
2021/12/30 08:24:34;;;;;;;1.06;0.10;;;;;;;13.10;100.00;99652.22;2032583;79;20621;-75
2021/12/30 08:27:47;;;;;;;0.00;0.00;;;;;;;13.12;100.00;99659.19;2033153;79;20265;-74
2021/12/30 08:30:50;;;;;;;0.32;0.10;;;;;;;13.13;100.00;99668.72;2028641;77;21168;-74
2021/12/30 08:33:53;;;;;;;0.69;0.10;;;;;;;13.14;100.00;99665.25;2025458;80;20292;-74
2021/12/30 08:36:55;;;;;;;0.40;0.10;;;;;;;13.15;100.00;99671.31;2025644;80;20287;-74
2021/12/30 08:40:01;;;;;;;0.61;0.05;;;;;;;13.18;100.00;99671.31;2025675;80;20233;-74
2021/12/30 08:43:04;;;;;;;0.55;0.10;;;;;;;13.20;100.00;99667.81;2026127;80;20203;-74
2021/12/30 08:46:07;;;;;;;0.10;0.10;;;;;;;13.21;100.00;99661.72;2025995;77;21679;-73
2021/12/30 08:49:11;;;;;;;0.10;0.10;;;;;;;13.24;100.00;99664.28;2029039;79;20699;-73
2021/12/30 08:52:16;;;;;;;1.79;0.20;;;;;;;13.24;100.00;99666.88;2029372;79;20584;-73
2021/12/30 08:55:19;;;;;;;0.10;0.10;;;;;;;13.26;100.00;99674.69;2029338;79;20178;-73
2021/12/30 08:58:22;;;;;;;1.21;0.20;;;;;;;13.27;100.00;99674.66;2028738;79;20723;-73
2021/12/30 09:01:26;;;;;;;0.66;0.10;;;;;;;13.30;100.00;99677.28;2025465;77;29778;-73
2021/12/30 09:04:29;;;;;;;0.10;0.10;;;;;;;13.30;100.00;99671.19;2023788;80;20218;-73
2021/12/30 09:07:31;;;;;;;0.16;0.10;;;;;;;13.33;100.00;99680.72;2022997;80;20199;-73
2021/12/30 09:10:40;;;;;;;0.34;0.00;;;;;;;13.35;100.00;99687.66;2024092;80;20205;-73
2021/12/30 09:13:42;;;;;;;0.10;0.10;;;;;;;13.33;100.00;99689.41;2023068;80;20244;-73
2021/12/30 09:16:48;;;;;;;0.10;0.04;;;;;;;13.34;100.00;99696.34;2022775;77;26318;-73
2021/12/30 09:19:50;;;;;;;0.20;0.10;;;;;;;13.39;100.00;99697.16;2024804;80;20186;-73
2021/12/30 09:22:55;;;;;;;0.65;0.10;;;;;;;13.40;99.94;99703.25;2025181;80;20163;-73
2021/12/30 09:25:58;;;;;;;0.40;0.00;;;;;;;13.39;99.79;99697.16;2025888;80;20623;-74
2021/12/30 09:29:01;;;;;;;0.34;0.05;;;;;;;13.42;99.84;99702.34;2025331;79;20187;-73
2021/12/30 09:32:03;;;;;;;0.30;0.10;;;;;;;13.40;99.60;99698.03;2023440;77;22184;-74
2021/12/30 09:35:08;;;;;;;0.08;0.08;;;;;;;13.42;99.58;99701.47;2024639;80;20199;-73
2021/12/30 09:38:11;;;;;;;0.41;0.10;;;;;;;13.45;99.54;99712.72;2024458;80;20313;-73
2021/12/30 09:41:14;;;;;;;0.10;0.10;;;;;;;13.45;99.44;99717.94;2024333;80;20991;-73
2021/12/30 09:44:18;;;;;;;0.03;0.00;;;;;;;13.46;99.40;99724.03;2023743;80;20263;-74
2021/12/30 09:47:21;;;;;;;0.63;0.10;;;;;;;13.47;99.15;99720.56;2022839;78;23548;-73
2021/12/30 09:50:28;;;;;;;0.25;0.00;;;;;;;13.46;98.94;99716.19;2024394;80;20382;-74
2021/12/30 09:53:31;;;;;;;0.31;0.10;;;;;;;13.45;98.94;99731.00;2024132;80;20194;-73
2021/12/30 09:56:34;;;;;;;0.35;0.10;;;;;;;13.46;98.80;99732.72;2023261;80;20226;-73
2021/12/30 09:59:37;;;;;;;2.06;0.13;;;;;;;13.50;98.62;99742.25;2023577;80;20247;-73
2021/12/30 10:02:41;;;;;;;1.15;0.10;;;;;;;13.53;98.39;99729.19;2026688;77;23523;-73
2021/12/30 10:05:44;;;;;;;0.20;0.10;;;;;;;13.58;98.55;99737.81;2028430;80;20247;-73
2021/12/30 10:08:56;;;;;;;1.01;0.10;;;;;;;13.60;98.38;99737.78;2031745;79;21025;-73
2021/12/30 10:12:00;;;;;;;0.40;0.10;;;;;;;13.62;98.08;99743.84;2028667;79;21103;-73
2021/12/30 10:15:04;;;;;;;0.20;0.20;;;;;;;13.62;98.10;99738.63;2027511;79;20227;-74
2021/12/30 10:18:06;;;;;;;1.64;0.10;;;;;;;13.63;98.07;99729.94;2027988;77;22686;-73
2021/12/30 10:21:26;;;;;;;0.20;0.13;;;;;;;13.60;97.72;99725.59;2029077;80;20636;-74
2021/12/30 10:24:32;;;;;;;0.17;0.17;;;;;;;13.62;97.82;99725.59;2029339;80;20299;-74
2021/12/30 10:27:34;;;;;;;0.57;0.17;;;;;;;13.63;97.97;99729.94;2029831;80;20207;-74
2021/12/30 10:30:37;;;;;;;0.64;0.13;;;;;;;13.69;97.98;99726.41;2028637;76;21731;-74
2021/12/30 10:34:09;;;;;;;1.35;0.20;;;;;;;13.74;97.77;99732.44;2029788;80;20186;-73
2021/12/30 10:37:19;;;;;;;1.59;0.22;;;;;;;13.80;97.70;99727.97;2028238;80;20178;-74
2021/12/30 10:40:32;;;;;;;0.10;0.10;;;;;;;13.82;97.44;99736.69;2028349;80;20262;-74
2021/12/30 10:43:46;;;;;;;1.46;0.30;;;;;;;13.84;97.30;99731.44;2028350;79;20262;-74
2021/12/30 10:46:49;;;;;;;0.63;0.20;;;;;;;13.85;97.01;99736.66;2030778;77;23081;-74
2021/12/30 10:50:09;;;;;;;0.55;0.15;;;;;;;13.83;97.00;99741.03;2028436;80;20182;-74
2021/12/30 10:53:12;;;;;;;0.28;0.10;;;;;;;13.83;96.99;99743.63;2027999;79;20227;-74
2021/12/30 10:56:27;;;;;;;0.93;0.10;;;;;;;13.84;96.84;99734.06;2029036;80;20877;-73
2021/12/30 10:59:32;;;;;;;1.21;0.44;;;;;;;13.80;96.95;99738.44;2028179;80;20901;-74
2021/12/30 11:02:36;;;;;;;0.10;0.10;;;;;;;13.78;97.11;99734.97;2027839;77;22983;-74
2021/12/30 11:05:38;;;;;;;0.10;0.10;;;;;;;13.78;97.48;99736.72;2029560;79;20256;-73
2021/12/30 11:08:41;;;;;;;0.50;0.10;;;;;;;13.76;97.86;99728.91;2027650;79;20200;-74
2021/12/30 11:11:50;;;;;;;0.13;0.10;;;;;;;13.74;98.32;99729.81;2028946;79;20238;-73
2021/12/30 11:14:54;;;;;;;0.60;0.19;;;;;;;13.79;98.66;99728.00;2029018;79;20216;-73
2021/12/30 11:18:08;;;;;;;0.41;0.10;;;;;;;13.81;98.78;99726.25;2026883;77;20444;-73
2021/12/30 11:21:11;;;;;;;0.10;0.10;;;;;;;13.79;99.11;99728.88;2028427;79;20297;-73
2021/12/30 11:24:13;;;;;;;1.58;0.10;;;;;;;13.81;99.30;99734.06;2030111;79;20170;-73
2021/12/30 11:27:19;;;;;;;0.10;0.10;;;;;;;13.81;99.50;99744.50;2029749;79;20163;-73
2021/12/30 11:30:21;;;;;;;1.16;0.10;;;;;;;13.80;99.67;99733.19;2027714;77;20205;-73
2021/12/30 11:33:25;;;;;;;2.20;0.10;;;;;;;13.84;99.65;99736.66;2024652;80;20223;-73
2021/12/30 11:36:33;;;;;;;0.39;0.10;;;;;;;13.83;99.46;99738.41;2024747;80;20204;-73
2021/12/30 11:39:42;;;;;;;0.10;0.10;;;;;;;13.81;99.29;99739.28;2022201;80;20303;-73
2021/12/30 11:42:58;;;;;;;0.29;0.00;;;;;;;13.81;99.53;99745.38;2024036;80;20199;-73
2021/12/30 11:46:00;;;;;;;0.82;0.10;;;;;;;13.82;99.45;99738.41;2023041;77;20694;-73
2021/12/30 11:49:05;;;;;;;0.45;0.10;;;;;;;13.83;99.19;99743.63;2028935;79;20405;-74
2021/12/30 11:52:08;;;;;;;1.16;0.10;;;;;;;13.84;99.21;99734.06;2028575;79;20178;-73
2021/12/30 11:55:39;;;;;;;0.10;0.10;;;;;;;13.86;99.17;99737.50;2029254;79;21259;-74
2021/12/30 11:58:48;;;;;;;2.47;0.10;;;;;;;13.85;98.45;99733.16;2027840;79;20233;-73
2021/12/30 12:01:51;;;;;;;1.46;0.10;;;;;;;13.84;98.46;99734.91;2028433;77;21308;-73
2021/12/30 12:04:54;;;;;;;0.20;0.10;;;;;;;13.84;98.41;99732.31;2029947;79;20752;-73
2021/12/30 12:08:03;;;;;;;1.70;0.10;;;;;;;13.84;98.25;99736.66;2030135;79;20216;-73
2021/12/30 12:11:18;;;;;;;0.10;0.10;;;;;;;13.84;98.30;99745.34;2030309;79;20194;-74
2021/12/30 12:14:45;;;;;;;0.30;0.10;;;;;;;13.91;98.14;99733.94;2030471;79;20321;-74
2021/12/30 12:17:48;;;;;;;1.02;0.20;;;;;;;13.97;97.72;99727.78;2028488;77;24641;-73
2021/12/30 12:20:52;;;;;;;0.50;0.17;;;;;;;14.05;97.02;99719.88;2031243;79;20234;-73
2021/12/30 12:23:55;;;;;;;0.52;0.20;;;;;;;14.16;96.45;99723.16;2031310;79;20662;-73
2021/12/30 12:27:20;;;;;;;0.91;0.15;;;;;;;14.25;95.36;99720.44;2032063;79;20171;-73
2021/12/30 12:30:30;;;;;;;0.40;0.19;;;;;;;14.35;94.02;99718.56;2027664;77;23907;-75
2021/12/30 12:33:34;;;;;;;1.50;0.38;;;;;;;14.36;92.41;99704.59;2029806;80;20639;-74
2021/12/30 12:36:38;;;;;;;1.01;0.30;;;;;;;14.42;91.90;99707.16;2029461;80;20175;-75
2021/12/30 12:39:40;;;;;;;1.45;0.35;;;;;;;14.42;91.48;99683.63;2026456;80;20195;-73
2021/12/30 12:42:43;;;;;;;1.67;0.40;;;;;;;14.44;90.33;99682.75;2025313;80;20191;-73
2021/12/30 12:45:48;;;;;;;1.91;0.38;;;;;;;14.56;90.32;99683.47;2023100;79;20638;-73
2021/12/30 12:48:54;;;;;;;1.71;0.20;;;;;;;14.64;89.51;99692.03;2022862;80;20327;-74
2021/12/30 12:51:57;;;;;;;2.47;0.30;;;;;;;14.70;87.70;99711.06;2023230;80;20346;-73
2021/12/30 12:55:00;;;;;;;2.26;0.31;;;;;;;14.74;87.65;99706.69;2023421;80;20284;-73
2021/12/30 12:58:06;;;;;;;1.58;0.20;;;;;;;14.73;87.09;99705.81;2022455;80;20216;-73
2021/12/30 13:01:12;;;;;;;1.29;0.30;;;;;;;14.74;87.09;99712.78;2021472;77;25184;-73
2021/12/30 13:04:15;;;;;;;2.13;0.52;;;;;;;14.72;86.59;99706.72;2022387;80;20287;-74
2021/12/30 13:07:21;;;;;;;2.92;0.40;;;;;;;14.67;86.24;99711.13;2022313;80;21258;-73
2021/12/30 13:10:24;;;;;;;1.26;0.30;;;;;;;14.63;85.79;99708.59;2023229;80;20190;-73
2021/12/30 13:13:38;;;;;;;1.29;0.71;;;;;;;14.59;86.04;99704.31;2022838;80;20224;-73
2021/12/30 13:16:42;;;;;;;1.94;0.30;;;;;;;14.57;85.69;99706.09;2027113;77;21668;-74
2021/12/30 13:19:48;;;;;;;3.09;0.46;;;;;;;14.61;85.96;99707.75;2030652;79;20202;-73
2021/12/30 13:22:56;;;;;;;2.83;0.49;;;;;;;14.66;85.59;99701.56;2027899;79;20206;-73
2021/12/30 13:26:03;;;;;;;3.75;0.56;;;;;;;14.65;85.00;99698.97;2027211;79;20206;-74
2021/12/30 13:29:06;;;;;;;1.61;0.40;;;;;;;14.57;83.95;99706.09;2026866;79;20210;-73
2021/12/30 13:32:23;;;;;;;3.81;0.71;;;;;;;14.59;84.20;99705.19;2026120;77;20678;-73
2021/12/30 13:35:28;;;;;;;2.59;0.50;;;;;;;14.64;84.72;99711.19;2029090;79;20221;-74
2021/12/30 13:38:31;;;;;;;4.00;0.60;;;;;;;14.71;84.65;99712.81;2030788;79;20194;-73
2021/12/30 13:41:34;;;;;;;3.72;0.50;;;;;;;14.72;83.92;99725.00;2030267;79;20808;-74
2021/12/30 13:44:49;;;;;;;2.76;0.49;;;;;;;14.68;83.53;99719.84;2029507;79;20234;-73
2021/12/30 13:47:52;;;;;;;2.15;0.80;;;;;;;14.69;84.14;99718.94;2026529;77;21281;-74
2021/12/30 13:51:00;;;;;;;2.54;0.57;;;;;;;14.69;84.12;99717.19;2026210;80;20189;-74
2021/12/30 13:54:07;;;;;;;;;;;;;;;14.69;83.70;99724.16;2027274;80;20174;-73
2021/12/30 13:57:10;;;;;;;2.49;0.51;;;;;;;14.69;83.44;99725.03;2026544;80;20038;-74
2021/12/30 14:00:18;;;;;;;3.60;0.80;;;;;;;14.64;83.15;99734.72;2029023;79;20178;-75
2021/12/30 14:03:29;;;;;;;3.33;0.68;;;;;;;14.58;83.09;99723.50;2029147;80;20167;-75
2021/12/30 14:06:33;;;;;;;3.92;0.46;;;;;;;14.53;83.26;99726.16;2026376;80;20273;-73
2021/12/30 14:09:36;;;;;;;2.42;0.49;;;;;;;14.48;83.17;99733.22;2022588;80;20211;-73
2021/12/30 14:12:53;;;;;;;1.52;0.43;;;;;;;14.47;83.45;99745.41;2022860;80;20227;-73
2021/12/30 14:15:56;;;;;;;3.19;0.64;;;;;;;14.46;84.02;99740.22;2022459;77;23162;-73
2021/12/30 14:18:59;;;;;;;3.40;0.51;;;;;;;14.45;83.83;99749.78;2027140;80;20170;-73
2021/12/30 14:22:03;;;;;;;2.83;0.44;;;;;;;14.43;83.84;99753.28;2028132;79;20182;-73
2021/12/30 14:25:34;;;;;;;4.38;0.68;;;;;;;14.36;83.25;99743.78;2027220;79;21369;-73
2021/12/30 14:28:45;;;;;;;2.56;0.49;;;;;;;14.29;83.47;99750.88;2027933;80;20199;-73
2021/12/30 14:31:53;;;;;;;1.70;0.40;;;;;;;14.27;83.94;99757.84;2023318;79;22961;-73